createdAt,value
2017-04-21T00:00:09.096Z,6.20
2017-04-21T00:01:08.911Z,6.20
2017-04-21T00:02:09.468Z,6.20
2017-04-21T00:03:09.301Z,6.20
2017-04-21T00:04:10.498Z,6.20
2017-04-21T00:05:11.281Z,6.20
2017-04-21T00:06:11.890Z,6.10
2017-04-21T00:07:11.621Z,6.10
2017-04-21T00:08:12.333Z,6.10
2017-04-21T00:09:13.100Z,6.10
2017-04-21T00:10:13.056Z,6.10
2017-04-21T00:11:13.188Z,6.00
2017-04-21T00:12:13.381Z,6.00
2017-04-21T00:13:13.700Z,6.10
2017-04-21T00:14:14.553Z,6.00
2017-04-21T00:15:14.579Z,6.00
2017-04-21T00:16:14.689Z,6.00
2017-04-21T00:17:14.436Z,6.00
2017-04-21T00:18:14.148Z,6.00
2017-04-21T00:19:14.076Z,6.00
2017-04-21T00:20:13.834Z,5.90
2017-04-21T00:21:14.532Z,6.00
2017-04-21T00:22:14.321Z,6.00
2017-04-21T00:23:14.313Z,6.00
2017-04-21T00:24:14.186Z,6.00
2017-04-21T00:25:15.107Z,6.00
2017-04-21T00:26:15.064Z,6.00
2017-04-21T00:27:15.428Z,6.00
2017-04-21T00:28:15.313Z,6.00
2017-04-21T00:29:15.071Z,6.00
2017-04-21T00:30:14.894Z,6.00
2017-04-21T00:31:15.503Z,6.00
2017-04-21T00:32:15.316Z,6.00
2017-04-21T00:33:15.122Z,6.00
2017-04-21T00:34:14.928Z,6.00
2017-04-21T00:35:14.855Z,6.10
2017-04-21T00:36:15.620Z,6.10
2017-04-21T00:37:15.381Z,6.10
2017-04-21T00:38:15.493Z,6.10
2017-04-21T00:39:15.308Z,6.20
2017-04-21T00:40:15.825Z,6.20
2017-04-21T00:41:15.730Z,6.20
2017-04-21T00:42:15.787Z,6.20
2017-04-21T00:43:17.278Z,6.20
2017-04-21T00:44:17.800Z,6.20
2017-04-21T00:45:17.612Z,6.30
2017-04-21T00:46:17.368Z,6.30
2017-04-21T00:47:17.588Z,6.30
2017-04-21T00:48:17.520Z,6.30
2017-04-21T00:49:18.066Z,6.30
2017-04-21T00:50:18.047Z,6.30
2017-04-21T00:51:17.862Z,6.40
2017-04-21T00:52:18.453Z,6.30
2017-04-21T00:53:18.338Z,6.40
2017-04-21T00:54:18.052Z,6.30
2017-04-21T00:55:17.864Z,6.30
2017-04-21T00:56:17.733Z,6.30
2017-04-21T00:57:17.502Z,6.30
2017-04-21T00:58:17.353Z,6.30
2017-04-21T00:59:17.304Z,6.30
2017-04-21T01:00:17.979Z,6.30
2017-04-21T01:01:17.761Z,6.20
2017-04-21T01:02:17.541Z,6.20
2017-04-21T01:03:17.492Z,6.20
2017-04-21T01:04:17.383Z,6.20
2017-04-21T01:05:17.211Z,6.20
2017-04-21T01:06:17.066Z,6.20
2017-04-21T01:07:17.067Z,6.20
2017-04-21T01:08:16.856Z,6.20
2017-04-21T01:09:17.535Z,6.20
2017-04-21T01:10:17.750Z,6.20
2017-04-21T01:11:17.672Z,6.20
2017-04-21T01:12:17.923Z,6.20
2017-04-21T01:13:17.732Z,6.10
2017-04-21T01:14:17.671Z,6.20
2017-04-21T01:15:18.017Z,6.20
2017-04-21T01:16:17.746Z,6.10
2017-04-21T01:17:17.765Z,6.10
2017-04-21T01:18:17.542Z,6.10
2017-04-21T01:19:17.330Z,6.10
2017-04-21T01:20:17.896Z,6.10
2017-04-21T01:21:17.588Z,6.10
2017-04-21T01:22:18.299Z,6.10
2017-04-21T01:23:18.891Z,6.10
2017-04-21T01:24:18.584Z,6.00
2017-04-21T01:25:18.885Z,6.10
2017-04-21T01:26:18.626Z,6.00
2017-04-21T01:27:18.423Z,6.00
2017-04-21T01:28:19.005Z,6.00
2017-04-21T01:29:18.969Z,6.00
2017-04-21T01:30:18.785Z,6.00
2017-04-21T01:31:18.433Z,5.90
2017-04-21T01:32:18.210Z,5.90
2017-04-21T01:33:18.070Z,5.90
2017-04-21T01:34:17.868Z,5.90
2017-04-21T01:35:17.770Z,5.90
2017-04-21T01:36:16.775Z,5.90
2017-04-21T01:37:16.657Z,5.90
2017-04-21T01:38:16.868Z,5.90
2017-04-21T01:39:17.346Z,5.90
2017-04-21T01:40:18.028Z,5.80
2017-04-21T01:41:18.009Z,5.90
2017-04-21T01:42:17.764Z,5.90
2017-04-21T01:43:18.293Z,5.80
2017-04-21T01:44:18.389Z,5.90
2017-04-21T01:45:18.361Z,5.90
2017-04-21T01:46:18.937Z,5.80
2017-04-21T01:47:18.894Z,5.90
2017-04-21T01:48:18.727Z,5.90
2017-04-21T01:49:18.566Z,5.90
2017-04-21T01:50:19.225Z,5.90
2017-04-21T01:51:19.170Z,5.90
2017-04-21T01:52:18.946Z,5.90
2017-04-21T01:53:19.536Z,5.80
2017-04-21T01:54:19.357Z,5.90
2017-04-21T01:55:19.118Z,5.90
2017-04-21T01:56:20.149Z,5.80
2017-04-21T01:57:19.889Z,5.90
2017-04-21T01:58:19.697Z,5.90
2017-04-21T01:59:19.577Z,5.90
2017-04-21T02:00:19.458Z,6.00
2017-04-21T02:01:19.198Z,6.00
2017-04-21T02:02:19.220Z,6.00
2017-04-21T02:03:19.022Z,6.00
2017-04-21T02:04:18.960Z,6.00
2017-04-21T02:05:19.496Z,6.10
2017-04-21T02:06:19.319Z,6.00
2017-04-21T02:07:19.238Z,6.10
2017-04-21T02:08:19.079Z,6.10
2017-04-21T02:09:18.907Z,6.10
2017-04-21T02:10:18.757Z,6.20
2017-04-21T02:11:18.011Z,6.20
2017-04-21T02:12:17.166Z,6.20
2017-04-21T02:13:16.355Z,6.20
2017-04-21T02:14:15.579Z,6.20
2017-04-21T02:15:14.761Z,6.30
2017-04-21T02:16:13.903Z,6.30
2017-04-21T02:17:13.047Z,6.30
2017-04-21T02:18:12.272Z,6.30
2017-04-21T02:19:11.418Z,6.40
2017-04-21T02:20:10.620Z,6.30
2017-04-21T02:21:09.787Z,6.40
2017-04-21T02:22:08.927Z,6.40
2017-04-21T02:23:08.083Z,6.40
2017-04-21T02:24:07.973Z,6.50
2017-04-21T02:25:07.116Z,6.50
2017-04-21T02:26:06.340Z,6.50
2017-04-21T02:27:05.531Z,6.50
2017-04-21T02:28:04.659Z,6.60
2017-04-21T02:29:03.799Z,6.60
2017-04-21T02:30:03.189Z,6.60
2017-04-21T02:31:02.319Z,6.60
2017-04-21T02:32:01.464Z,6.70
2017-04-21T02:33:00.591Z,6.70
2017-04-21T02:33:59.799Z,6.70
2017-04-21T02:34:58.939Z,6.70
2017-04-21T02:35:58.124Z,6.70
2017-04-21T02:36:57.269Z,6.70
2017-04-21T02:37:56.395Z,6.80
2017-04-21T02:38:55.536Z,6.80
2017-04-21T02:39:54.691Z,6.80
2017-04-21T02:40:54.585Z,6.80
2017-04-21T02:41:53.759Z,6.80
2017-04-21T02:42:52.897Z,6.80
2017-04-21T02:43:52.028Z,6.80
2017-04-21T02:44:51.949Z,6.80
2017-04-21T02:45:51.092Z,6.90
2017-04-21T02:46:50.235Z,6.80
2017-04-21T02:47:49.685Z,6.90
2017-04-21T02:48:48.824Z,6.90
2017-04-21T02:49:47.987Z,6.90
2017-04-21T02:50:47.127Z,6.90
2017-04-21T02:51:46.279Z,6.90
2017-04-21T02:52:45.440Z,6.90
2017-04-21T02:53:44.611Z,6.90
2017-04-21T02:54:43.788Z,6.90
2017-04-21T02:55:42.936Z,6.90
2017-04-21T02:56:42.788Z,6.90
2017-04-21T02:57:41.929Z,6.90
2017-04-21T02:58:41.067Z,6.90
2017-04-21T02:59:40.987Z,6.90
2017-04-21T03:00:40.180Z,6.90
2017-04-21T03:01:39.335Z,6.90
2017-04-21T03:02:39.272Z,6.90
2017-04-21T03:03:38.411Z,6.90
2017-04-21T03:04:37.600Z,6.90
2017-04-21T03:05:36.727Z,6.90
2017-04-21T03:06:35.808Z,7.00
2017-04-21T03:07:34.940Z,6.90
2017-04-21T03:08:34.076Z,6.90
2017-04-21T03:09:33.168Z,6.90
2017-04-21T03:10:32.252Z,6.90
2017-04-21T03:11:31.339Z,6.90
2017-04-21T03:12:30.439Z,6.90
2017-04-21T03:13:29.527Z,6.90
2017-04-21T03:14:29.384Z,7.00
2017-04-21T03:15:28.475Z,7.00
2017-04-21T03:16:27.568Z,7.00
2017-04-21T03:17:26.679Z,7.00
2017-04-21T03:18:25.768Z,7.00
2017-04-21T03:19:24.848Z,7.00
2017-04-21T03:20:23.968Z,7.00
2017-04-21T03:21:23.067Z,7.00
2017-04-21T03:22:22.156Z,7.00
2017-04-21T03:23:21.255Z,7.00
2017-04-21T03:24:20.359Z,7.10
2017-04-21T03:25:19.727Z,7.10
2017-04-21T03:26:18.843Z,7.10
2017-04-21T03:27:17.950Z,7.10
2017-04-21T03:28:17.792Z,7.10
2017-04-21T03:29:16.885Z,7.10
2017-04-21T03:30:15.987Z,7.10
2017-04-21T03:31:15.131Z,7.20
2017-04-21T03:32:14.227Z,7.20
2017-04-21T03:33:13.330Z,7.20
2017-04-21T03:34:12.428Z,7.20
2017-04-21T03:35:11.528Z,7.20
2017-04-21T03:36:10.628Z,7.20
2017-04-21T03:37:09.761Z,7.20
2017-04-21T03:38:08.847Z,7.20
2017-04-21T03:39:07.929Z,7.20
2017-04-21T03:40:07.015Z,7.20
2017-04-21T03:41:06.101Z,7.20
2017-04-21T03:42:05.191Z,7.30
2017-04-21T03:43:04.325Z,7.30
2017-04-21T03:44:03.415Z,7.30
2017-04-21T03:45:02.500Z,7.30
2017-04-21T03:46:01.587Z,7.30
2017-04-21T03:47:00.676Z,7.30
2017-04-21T03:48:00.095Z,7.30
2017-04-21T03:48:59.333Z,7.20
2017-04-21T03:49:58.421Z,7.30
2017-04-21T03:50:57.511Z,7.30
2017-04-21T03:51:56.635Z,7.30
2017-04-21T03:52:55.724Z,7.30
2017-04-21T03:53:54.811Z,7.30
2017-04-21T03:54:53.936Z,7.30
2017-04-21T03:55:53.019Z,7.30
2017-04-21T03:56:52.132Z,7.30
2017-04-21T03:57:51.224Z,7.40
2017-04-21T03:58:50.309Z,7.40
2017-04-21T03:59:49.395Z,7.30
2017-04-21T04:00:48.560Z,7.30
2017-04-21T04:01:47.652Z,7.40
2017-04-21T04:02:46.753Z,7.40
2017-04-21T04:03:45.864Z,7.40
2017-04-21T04:04:44.951Z,7.40
2017-04-21T04:05:44.168Z,7.40
2017-04-21T04:06:43.336Z,7.40
2017-04-21T04:07:42.472Z,7.40
2017-04-21T04:08:41.608Z,7.50
2017-04-21T04:09:40.753Z,7.40
2017-04-21T04:10:39.915Z,7.40
2017-04-21T04:11:39.099Z,7.40
2017-04-21T04:12:38.244Z,7.40
2017-04-21T04:13:37.378Z,7.40
2017-04-21T04:14:36.519Z,7.40
2017-04-21T04:15:35.664Z,7.40
2017-04-21T04:16:34.839Z,7.40
2017-04-21T04:17:34.024Z,7.40
2017-04-21T04:18:33.202Z,7.50
2017-04-21T04:19:32.371Z,7.40
2017-04-21T04:20:31.755Z,7.40
2017-04-21T04:21:30.900Z,7.40
2017-04-21T04:22:30.043Z,7.40
2017-04-21T04:23:29.272Z,7.50
2017-04-21T04:24:28.412Z,7.50
2017-04-21T04:25:27.572Z,7.50
2017-04-21T04:26:27.461Z,7.50
2017-04-21T04:27:26.603Z,7.50
2017-04-21T04:28:25.748Z,7.50
2017-04-21T04:29:24.951Z,7.50
2017-04-21T04:30:24.109Z,7.50
2017-04-21T04:31:23.256Z,7.50
2017-04-21T04:32:22.394Z,7.50
2017-04-21T04:33:21.526Z,7.50
2017-04-21T04:34:20.664Z,7.50
2017-04-21T04:35:20.583Z,7.50
2017-04-21T04:36:20.468Z,7.50
2017-04-21T04:37:19.647Z,7.50
2017-04-21T04:38:18.791Z,7.50
2017-04-21T04:39:17.936Z,7.50
2017-04-21T04:40:17.075Z,7.50
2017-04-21T04:41:16.277Z,7.50
2017-04-21T04:42:15.455Z,7.50
2017-04-21T04:43:14.625Z,7.50
2017-04-21T04:44:13.768Z,7.50
2017-04-21T04:45:12.910Z,7.50
2017-04-21T04:46:12.108Z,7.50
2017-04-21T04:47:11.294Z,7.50
2017-04-21T04:48:10.436Z,7.50
2017-04-21T04:49:09.580Z,7.50
2017-04-21T04:50:08.743Z,7.50
2017-04-21T04:51:07.895Z,7.50
2017-04-21T04:52:07.781Z,7.50
2017-04-21T04:53:06.966Z,7.50
2017-04-21T04:54:06.103Z,7.50
2017-04-21T04:55:05.248Z,7.50
2017-04-21T04:56:04.400Z,7.50
2017-04-21T04:57:03.591Z,7.50
2017-04-21T04:58:02.729Z,7.50
2017-04-21T04:59:02.633Z,7.50
2017-04-21T05:00:02.521Z,7.50
2017-04-21T05:01:01.660Z,7.50
2017-04-21T05:02:00.809Z,7.50
2017-04-21T05:03:00.691Z,7.50
2017-04-21T05:04:59.452Z,7.50
2017-04-21T05:05:58.627Z,7.50
2017-04-21T05:06:57.987Z,7.50
2017-04-21T05:07:57.374Z,7.60
2017-04-21T05:08:56.524Z,7.60
2017-04-21T05:09:55.705Z,7.60
2017-04-21T05:10:54.991Z,7.60
2017-04-21T05:11:54.133Z,7.60
2017-04-21T05:12:53.271Z,7.60
2017-04-21T05:13:52.495Z,7.60
2017-04-21T05:14:51.591Z,7.50
2017-04-21T05:15:50.765Z,7.60
2017-04-21T05:16:50.632Z,7.60
2017-04-21T05:17:49.774Z,7.60
2017-04-21T05:18:48.872Z,7.60
2017-04-21T05:19:47.963Z,7.60
2017-04-21T05:20:47.047Z,7.60
2017-04-21T05:21:46.167Z,7.60
2017-04-21T05:22:45.295Z,7.60
2017-04-21T05:23:44.383Z,7.70
2017-04-21T05:24:43.500Z,7.60
2017-04-21T05:25:42.595Z,7.70
2017-04-21T05:26:41.691Z,7.70
2017-04-21T05:27:40.794Z,7.70
2017-04-21T05:28:39.932Z,7.60
2017-04-21T05:29:39.030Z,7.70
2017-04-21T05:30:39.720Z,7.70
2017-04-21T05:31:38.832Z,7.70
2017-04-21T05:32:37.980Z,7.70
2017-04-21T05:33:37.836Z,7.60
2017-04-21T05:34:36.960Z,7.60
2017-04-21T05:35:36.047Z,7.60
2017-04-21T05:36:35.875Z,7.60
2017-04-21T05:37:34.968Z,7.60
2017-04-21T05:38:34.052Z,7.60
2017-04-21T05:39:33.171Z,7.70
2017-04-21T05:40:32.301Z,7.70
2017-04-21T05:41:32.141Z,7.60
2017-04-21T05:42:31.257Z,7.60
2017-04-21T05:43:30.349Z,7.60
2017-04-21T05:44:29.471Z,7.60
2017-04-21T05:45:28.567Z,7.60
2017-04-21T05:46:27.704Z,7.60
2017-04-21T05:47:26.808Z,7.60
2017-04-21T05:48:26.644Z,7.60
2017-04-21T05:49:25.739Z,7.60
2017-04-21T05:50:24.831Z,7.60
2017-04-21T05:51:23.920Z,7.60
2017-04-21T05:52:23.043Z,7.70
2017-04-21T05:53:22.139Z,7.70
2017-04-21T05:54:22.008Z,7.60
2017-04-21T05:55:21.104Z,7.70
2017-04-21T05:56:20.195Z,7.70
2017-04-21T05:57:19.293Z,7.70
2017-04-21T05:58:19.120Z,7.70
2017-04-21T05:59:18.239Z,7.70
2017-04-21T06:00:17.343Z,7.70
2017-04-21T06:01:16.468Z,7.80
2017-04-21T06:02:15.566Z,7.80
2017-04-21T06:03:14.664Z,7.80
2017-04-21T06:04:13.788Z,7.80
2017-04-21T06:05:12.889Z,7.80
2017-04-21T06:06:12.751Z,7.80
2017-04-21T06:07:11.891Z,7.90
2017-04-21T06:08:12.252Z,7.90
2017-04-21T06:09:11.349Z,8.00
2017-04-21T06:10:10.436Z,8.00
2017-04-21T06:11:09.527Z,8.00
2017-04-21T06:12:08.619Z,8.10
2017-04-21T06:13:07.756Z,8.10
2017-04-21T06:14:06.933Z,8.10
2017-04-21T06:15:06.087Z,8.10
2017-04-21T06:16:05.220Z,8.20
2017-04-21T06:17:04.360Z,8.10
2017-04-21T06:18:03.539Z,8.20
2017-04-21T06:19:02.721Z,8.20
2017-04-21T06:20:01.868Z,8.20
2017-04-21T06:21:01.012Z,8.20
2017-04-21T06:22:00.152Z,8.20
2017-04-21T06:22:59.294Z,8.20
2017-04-21T06:23:58.432Z,8.20
2017-04-21T06:24:57.664Z,8.20
2017-04-21T06:25:56.796Z,8.30
2017-04-21T06:26:55.946Z,8.30
2017-04-21T06:27:55.836Z,8.30
2017-04-21T06:28:54.975Z,8.30
2017-04-21T06:29:54.112Z,8.30
2017-04-21T06:30:53.303Z,8.40
2017-04-21T06:31:53.187Z,8.40
2017-04-21T06:32:52.328Z,8.40
2017-04-21T06:33:51.503Z,8.40
2017-04-21T06:34:50.668Z,8.40
2017-04-21T06:35:49.835Z,8.40
2017-04-21T06:36:49.004Z,8.50
2017-04-21T06:37:48.143Z,8.50
2017-04-21T06:38:48.023Z,8.40
2017-04-21T06:39:47.168Z,8.40
2017-04-21T06:40:46.317Z,8.50
2017-04-21T06:41:45.451Z,8.50
2017-04-21T06:42:44.652Z,8.50
2017-04-21T06:43:43.790Z,8.40
2017-04-21T06:44:42.942Z,8.40
2017-04-21T06:45:42.080Z,8.40
2017-04-21T06:46:41.252Z,8.50
2017-04-21T06:47:40.444Z,8.50
2017-04-21T06:48:40.198Z,8.50
2017-04-21T06:49:39.747Z,8.50
2017-04-21T06:50:38.972Z,8.50
2017-04-21T06:51:38.140Z,8.50
2017-04-21T06:52:37.302Z,8.50
2017-04-21T06:53:37.469Z,8.50
2017-04-21T06:54:36.795Z,8.50
2017-04-21T06:55:36.459Z,8.50
2017-04-21T06:56:35.599Z,8.50
2017-04-21T06:57:34.735Z,8.60
2017-04-21T06:58:33.881Z,8.60
2017-04-21T06:59:33.027Z,8.70
2017-04-21T07:00:32.206Z,8.60
2017-04-21T07:01:31.339Z,8.60
2017-04-21T07:02:35.029Z,8.60
2017-04-21T07:03:34.179Z,8.70
2017-04-21T07:04:34.065Z,8.70
2017-04-21T07:05:33.224Z,8.80
2017-04-21T07:06:32.376Z,8.80
2017-04-21T07:07:31.545Z,8.80
2017-04-21T07:08:30.759Z,8.80
2017-04-21T07:09:29.898Z,8.80
2017-04-21T07:10:29.043Z,8.90
2017-04-21T07:11:28.183Z,8.90
2017-04-21T07:12:27.347Z,8.90
2017-04-21T07:13:26.484Z,8.90
2017-04-21T07:14:26.356Z,9.00
2017-04-21T07:15:25.444Z,9.00
2017-04-21T07:16:24.548Z,9.10
2017-04-21T07:17:23.680Z,9.10
2017-04-21T07:18:22.763Z,9.10
2017-04-21T07:19:21.851Z,9.20
2017-04-21T07:20:20.983Z,9.20
2017-04-21T07:21:20.488Z,9.30
2017-04-21T07:22:19.579Z,9.40
2017-04-21T07:23:19.653Z,9.40
2017-04-21T07:24:18.745Z,9.40
2017-04-21T07:25:17.855Z,9.50
2017-04-21T07:27:16.347Z,9.50
2017-04-21T07:28:15.459Z,9.50
2017-04-21T07:29:14.780Z,9.50
2017-04-21T07:30:13.869Z,9.60
2017-04-21T07:31:13.120Z,9.60
2017-04-21T07:32:12.208Z,9.60
2017-04-21T07:33:11.306Z,9.60
2017-04-21T07:34:10.403Z,9.60
2017-04-21T07:35:09.705Z,9.60
2017-04-21T07:36:08.808Z,9.60
2017-04-21T07:37:07.978Z,9.60
2017-04-21T07:38:07.096Z,9.60
2017-04-21T07:39:06.960Z,9.60
2017-04-21T07:40:06.068Z,9.60
2017-04-21T07:41:05.245Z,9.60
2017-04-21T07:42:04.333Z,9.60
2017-04-21T07:43:03.427Z,9.70
2017-04-21T07:44:02.851Z,9.70
2017-04-21T07:45:01.939Z,9.70
2017-04-21T07:46:01.088Z,9.70
2017-04-21T07:47:00.364Z,9.70
2017-04-21T07:47:59.539Z,9.80
2017-04-21T07:48:58.676Z,9.80
2017-04-21T07:49:58.596Z,9.70
2017-04-21T07:50:57.748Z,9.70
2017-04-21T07:51:56.892Z,9.70
2017-04-21T07:52:56.059Z,9.80
2017-04-21T07:53:55.200Z,9.80
2017-04-21T07:54:54.386Z,9.80
2017-04-21T07:55:53.536Z,9.80
2017-04-21T07:56:52.688Z,9.80
2017-04-21T07:57:51.840Z,9.80
2017-04-21T07:58:50.999Z,9.70
2017-04-21T07:59:54.583Z,9.80
2017-04-21T08:00:49.403Z,9.80
2017-04-21T08:01:48.568Z,9.80
2017-04-21T08:02:47.718Z,9.70
2017-04-21T08:03:46.885Z,9.70
2017-04-21T08:04:46.367Z,9.70
2017-04-21T08:05:45.524Z,9.70
2017-04-21T08:06:44.684Z,9.70
2017-04-21T08:07:43.876Z,9.70
2017-04-21T08:08:43.053Z,9.70
2017-04-21T08:09:42.408Z,9.70
2017-04-21T08:10:41.609Z,9.60
2017-04-21T08:11:40.756Z,9.60
2017-04-21T08:12:39.910Z,9.60
2017-04-21T08:13:39.817Z,9.50
2017-04-21T08:14:39.025Z,9.50
2017-04-21T08:15:38.192Z,9.40
2017-04-21T08:16:37.364Z,9.40
2017-04-21T08:17:37.304Z,9.40
2017-04-21T08:18:36.488Z,9.40
2017-04-21T08:19:35.716Z,9.30
2017-04-21T08:20:35.008Z,9.30
2017-04-21T08:21:34.164Z,9.30
2017-04-21T08:22:33.317Z,9.30
2017-04-21T08:23:32.473Z,9.30
2017-04-21T08:24:31.659Z,9.30
2017-04-21T08:25:30.843Z,9.20
2017-04-21T08:26:30.025Z,9.30
2017-04-21T08:27:29.175Z,9.30
2017-04-21T08:28:28.320Z,9.20
2017-04-21T08:29:27.471Z,9.20
2017-04-21T08:30:26.694Z,9.20
2017-04-21T08:31:25.835Z,9.20
2017-04-21T08:32:25.016Z,9.30
2017-04-21T08:33:24.427Z,9.30
2017-04-21T08:34:23.567Z,9.30
2017-04-21T08:35:23.451Z,9.30
2017-04-21T08:36:22.627Z,9.40
2017-04-21T08:37:22.019Z,9.40
2017-04-21T08:38:23.397Z,9.50
2017-04-21T08:39:23.288Z,9.50
2017-04-21T08:40:22.467Z,9.60
2017-04-21T08:41:21.623Z,9.60
2017-04-21T08:42:20.779Z,9.60
2017-04-21T08:43:19.944Z,9.70
2017-04-21T08:44:19.887Z,9.80
2017-04-21T08:45:19.040Z,9.80
2017-04-21T08:46:18.927Z,9.90
2017-04-21T08:47:18.075Z,10.00
2017-04-21T08:48:17.220Z,10.10
2017-04-21T08:49:16.376Z,10.20
2017-04-21T08:50:15.756Z,10.20
2017-04-21T08:51:14.931Z,10.30
2017-04-21T08:52:14.087Z,10.30
2017-04-21T08:53:13.243Z,10.40
2017-04-21T08:54:12.383Z,10.40
2017-04-21T08:55:11.562Z,10.40
2017-04-21T08:56:10.739Z,10.40
2017-04-21T08:57:09.888Z,10.60
2017-04-21T08:58:09.789Z,10.60
2017-04-21T08:59:08.935Z,10.70
2017-04-21T09:00:08.196Z,10.70
2017-04-21T09:01:07.356Z,10.80
2017-04-21T09:02:06.543Z,10.80
2017-04-21T09:03:05.712Z,10.80
2017-04-21T09:04:04.879Z,10.90
2017-04-21T09:05:04.052Z,10.90
2017-04-21T09:06:03.251Z,10.80
2017-04-21T09:07:02.419Z,10.80
2017-04-21T09:08:01.579Z,10.80
2017-04-21T09:09:01.476Z,10.90
2017-04-21T09:10:00.627Z,10.90
2017-04-21T09:11:00.521Z,11.00
2017-04-21T09:11:59.796Z,11.00
2017-04-21T09:12:58.943Z,11.00
2017-04-21T09:13:58.087Z,11.10
2017-04-21T09:14:57.244Z,11.10
2017-04-21T09:15:56.407Z,11.20
2017-04-21T09:16:55.547Z,11.30
2017-04-21T09:17:54.925Z,11.30
2017-04-21T09:18:54.118Z,11.30
2017-04-21T09:19:53.268Z,11.40
2017-04-21T09:20:53.165Z,11.40
2017-04-21T09:21:53.711Z,11.40
2017-04-21T09:22:52.860Z,11.40
2017-04-21T09:23:52.056Z,11.40
2017-04-21T09:24:51.203Z,11.50
2017-04-21T09:25:50.350Z,11.50
2017-04-21T09:26:50.275Z,11.50
2017-04-21T09:27:49.444Z,11.50
2017-04-21T09:28:49.409Z,11.30
2017-04-21T09:29:48.584Z,11.30
2017-04-21T09:31:00.667Z,11.30
2017-04-21T09:31:46.992Z,11.30
2017-04-21T09:32:46.138Z,11.40
2017-04-21T09:33:45.345Z,11.30
2017-04-21T09:34:44.496Z,11.40
2017-04-21T09:35:44.129Z,11.40
2017-04-21T09:36:44.055Z,11.40
2017-04-21T09:37:43.312Z,11.40
2017-04-21T09:38:43.235Z,11.30
2017-04-21T09:39:42.628Z,11.40
2017-04-21T09:40:41.768Z,11.40
2017-04-21T09:41:40.952Z,11.40
2017-04-21T09:42:40.347Z,11.40
2017-04-21T09:43:39.596Z,11.40
2017-04-21T09:44:38.747Z,11.40
2017-04-21T09:45:37.908Z,11.50
2017-04-21T09:46:37.065Z,11.50
2017-04-21T09:47:36.249Z,11.60
2017-04-21T09:48:35.414Z,11.50
2017-04-21T09:49:34.600Z,11.60
2017-04-21T09:50:33.792Z,11.50
2017-04-21T09:51:32.935Z,11.60
2017-04-21T09:52:32.073Z,11.70
2017-04-21T09:53:31.280Z,11.80
2017-04-21T09:56:05.054Z,11.80
2017-04-21T09:57:02.409Z,11.90
2017-04-21T09:57:23.110Z,12.00
2017-04-21T09:57:55.055Z,12.10
2017-04-21T09:59:53.505Z,12.30
2017-04-21T10:00:25.852Z,12.30
2017-04-21T10:04:21.654Z,12.30
2017-04-21T10:04:32.275Z,12.40
2017-04-21T10:04:42.203Z,12.40
2017-04-21T10:06:25.389Z,12.70
2017-04-21T10:07:56.538Z,12.50
2017-04-21T10:08:21.276Z,12.60
2017-04-21T10:08:21.618Z,12.60
2017-04-21T10:08:22.020Z,12.50
2017-04-21T10:08:22.162Z,12.70
2017-04-21T10:09:19.156Z,12.60
2017-04-21T10:10:18.256Z,12.60
2017-04-21T10:11:17.756Z,12.70
2017-04-21T10:12:16.857Z,12.70
2017-04-21T10:13:15.976Z,12.70
2017-04-21T10:14:15.821Z,12.70
2017-04-21T10:15:14.920Z,12.70
2017-04-21T10:16:14.051Z,12.70
2017-04-21T10:17:14.112Z,12.70
2017-04-21T10:18:13.248Z,12.60
2017-04-21T10:19:12.343Z,12.60
2017-04-21T10:20:11.444Z,12.60
2017-04-21T10:21:10.551Z,12.60
2017-04-21T10:22:09.644Z,12.70
2017-04-21T10:23:08.868Z,12.80
2017-04-21T10:24:07.972Z,12.80
2017-04-21T10:25:07.063Z,12.90
2017-04-21T10:26:06.152Z,13.00
2017-04-21T10:27:05.248Z,13.10
2017-04-21T10:28:04.348Z,13.20
2017-04-21T10:29:03.467Z,13.30
2017-04-21T10:30:02.570Z,13.30
2017-04-21T10:31:02.432Z,13.40
2017-04-21T10:32:01.539Z,13.50
2017-04-21T10:33:00.636Z,13.50
2017-04-21T10:33:59.736Z,13.60
2017-04-21T10:34:58.895Z,13.70
2017-04-21T10:35:57.987Z,13.80
2017-04-21T10:36:57.081Z,13.90
2017-04-21T10:37:56.195Z,14.00
2017-04-21T10:38:55.292Z,14.10
2017-04-21T10:39:54.403Z,14.20
2017-04-21T10:40:53.903Z,14.20
2017-04-21T10:41:53.001Z,14.20
2017-04-21T10:42:52.105Z,14.20
2017-04-21T10:55:09.703Z,14.70
2017-04-21T10:56:09.538Z,14.70
2017-04-21T10:57:08.664Z,14.80
2017-04-21T10:58:07.771Z,14.80
2017-04-21T10:59:06.899Z,14.70
2017-04-21T11:00:05.991Z,14.60
2017-04-21T11:01:05.095Z,14.50
2017-04-21T11:02:04.183Z,14.60
2017-04-21T11:03:03.352Z,14.60
2017-04-21T11:04:02.496Z,14.60
2017-04-21T11:05:02.396Z,14.70
2017-04-21T11:06:02.284Z,14.60
2017-04-21T11:07:01.434Z,14.70
2017-04-21T11:08:00.705Z,14.60
2017-04-21T11:08:59.917Z,14.60
2017-04-21T11:09:59.068Z,14.50
2017-04-21T11:10:58.955Z,14.60
2017-04-21T11:11:58.120Z,14.50
2017-04-21T11:12:57.265Z,14.50
2017-04-21T11:13:56.415Z,14.40
2017-04-21T11:14:56.304Z,14.40
2017-04-21T11:15:55.447Z,14.40
2017-04-21T11:16:54.631Z,14.40
2017-04-21T11:17:53.780Z,14.40
2017-04-21T11:18:52.964Z,14.40
2017-04-21T11:19:52.104Z,14.40
2017-04-21T11:20:51.271Z,14.40
2017-04-21T11:21:50.415Z,14.50
2017-04-21T11:22:49.596Z,14.50
2017-04-21T11:23:48.772Z,14.40
2017-04-21T11:24:48.887Z,14.40
2017-04-21T11:25:48.035Z,14.40
2017-04-21T11:26:47.187Z,14.40
2017-04-21T11:27:46.338Z,14.40
2017-04-21T11:28:45.507Z,14.40
2017-04-21T11:29:44.655Z,14.50
2017-04-21T11:30:44.559Z,14.50
2017-04-21T11:31:44.453Z,14.50
2017-04-21T11:32:43.636Z,14.50
2017-04-21T11:33:42.774Z,14.50
2017-04-21T11:34:41.923Z,14.40
2017-04-21T11:35:41.132Z,14.40
2017-04-21T11:36:40.291Z,14.50
2017-04-21T11:37:39.439Z,14.40
2017-04-21T11:38:38.626Z,14.40
2017-04-21T11:39:37.775Z,14.40
2017-04-21T11:40:37.671Z,14.30
2017-04-21T11:41:37.571Z,14.20
2017-04-21T11:42:36.711Z,14.10
2017-04-21T11:43:35.920Z,14.00
2017-04-21T11:45:34.522Z,13.80
2017-04-21T11:46:34.632Z,13.80
2017-04-21T11:47:34.523Z,13.70
2017-04-21T11:48:33.667Z,13.70
2017-04-21T11:49:32.819Z,13.60
2017-04-21T11:50:32.032Z,13.60
2017-04-21T11:51:31.207Z,13.70
2017-04-21T11:52:31.092Z,13.70
2017-04-21T11:53:30.977Z,13.80
2017-04-21T11:54:30.152Z,13.80
2017-04-21T11:55:29.320Z,13.80
2017-04-21T11:56:28.460Z,13.80
2017-04-21T11:57:28.357Z,13.80
2017-04-21T11:58:27.499Z,13.90
2017-04-21T11:59:26.646Z,13.90
2017-04-21T12:00:26.570Z,13.90
2017-04-21T12:01:25.758Z,13.90
2017-04-21T12:02:24.907Z,14.00
2017-04-21T12:03:24.756Z,13.90
2017-04-21T12:04:23.905Z,14.00
2017-04-21T12:05:23.815Z,14.00
2017-04-21T12:06:23.705Z,14.10
2017-04-21T12:07:22.871Z,14.20
2017-04-21T12:08:22.035Z,14.20
2017-04-21T12:09:21.195Z,14.20
2017-04-21T12:10:20.351Z,14.20
2017-04-21T12:11:20.102Z,14.30
2017-04-21T12:12:19.888Z,14.30
2017-04-21T12:13:19.580Z,14.30
2017-04-21T12:14:18.809Z,14.50
2017-04-21T12:15:17.984Z,14.50
2017-04-21T12:16:17.127Z,14.50
2017-04-21T12:17:16.272Z,14.50
2017-04-21T12:18:15.457Z,14.60
2017-04-21T12:19:14.615Z,14.60
2017-04-21T12:20:13.789Z,14.60
2017-04-21T12:21:13.812Z,14.60
2017-04-21T12:22:12.976Z,14.70
2017-04-21T12:23:13.526Z,14.70
2017-04-21T12:24:12.676Z,14.70
2017-04-21T12:25:12.591Z,14.70
2017-04-21T12:26:12.475Z,14.70
2017-04-21T12:27:11.634Z,14.80
2017-04-21T12:28:10.815Z,14.70
2017-04-21T12:29:09.960Z,14.80
2017-04-21T12:30:09.934Z,14.80
2017-04-21T12:31:09.113Z,14.80
2017-04-21T12:32:08.290Z,14.80
2017-04-21T12:33:07.465Z,14.80
2017-04-21T12:34:06.636Z,14.80
2017-04-21T12:35:05.817Z,14.80
2017-04-21T12:36:04.991Z,14.80
2017-04-21T12:37:04.921Z,14.80
2017-04-21T12:38:04.087Z,14.80
2017-04-21T12:39:04.336Z,14.90
2017-04-21T12:40:03.533Z,14.90
2017-04-21T12:41:02.825Z,14.90
2017-04-21T12:42:02.001Z,15.00
2017-04-21T12:43:01.169Z,15.00
2017-04-21T12:44:00.725Z,15.10
2017-04-21T12:44:59.928Z,15.20
2017-04-21T12:46:00.010Z,15.20
2017-04-21T12:46:59.188Z,15.30
2017-04-21T12:47:58.349Z,15.30
2017-04-21T12:48:57.512Z,15.30
2017-04-21T12:49:57.473Z,15.30
2017-04-21T12:50:56.692Z,15.30
2017-04-21T12:51:56.596Z,15.30
2017-04-21T12:52:56.520Z,15.30
2017-04-21T12:53:55.679Z,15.30
2017-04-21T12:54:54.849Z,15.40
2017-04-21T12:55:54.021Z,15.40
2017-04-21T12:56:53.188Z,15.50
2017-04-21T12:57:52.355Z,15.50
2017-04-21T12:58:51.533Z,15.50
2017-04-21T12:59:51.448Z,15.70
2017-04-21T13:00:50.653Z,15.80
2017-04-21T13:01:49.828Z,15.80
2017-04-21T13:02:49.036Z,15.80
2017-04-21T13:03:48.188Z,15.80
2017-04-21T13:04:47.351Z,15.80
2017-04-21T13:05:46.512Z,15.80
2017-04-21T13:06:45.729Z,15.90
2017-04-21T13:07:44.905Z,15.80
2017-04-21T13:08:44.081Z,15.80
2017-04-21T13:09:43.307Z,15.90
2017-04-21T13:10:43.221Z,15.90
2017-04-21T13:11:43.128Z,16.00
2017-04-21T13:12:43.305Z,16.00
2017-04-21T13:13:42.493Z,16.10
2017-04-21T13:14:41.656Z,16.10
2017-04-21T13:15:40.832Z,16.10